Etusivu
METAR-TAF:

METAR-TAF

Lentoasemat :

Erzurum, Turkki

Leveyspiiri: 39-55N, Pituuspiiri: 041-16E, korkeus merenpinnasta: 1756 m

Tämänhetkinen sää

Tämä raportti tehtiin 24 minuuttia sitten, kello 05.50 UTC
Tuuli 4 kn eri suunnista
Lämpötila 18°C
Kosteus 52%
Ilmanpaine 1015 hPa
Näkyvyys 10 km tai enemmän
Hajanaisia pilviä 3000 ft:n korkeudessa

METAR: LTCE 170550Z VRB04KT 9999 SCT030 18/08 Q1015 NOSIG

Aika: 09:14 (06:14 UTC)

Sääennuste

Tämä raportti tehtiin 1 tunti ja 34 minuuttia sitten, kello 04.40 UTC
Ennuste voimassa 17. päivästä klo 06 UTC - 18. päivään klo 06 UTC
Tuuli 2 kn eri suunnista
Näkyvyys 10 km tai enemmän
Hajanaisia pilviä 3000 ft:n korkeudessa
Tulossa
17. päivästä klo 16 UTC - 17. päivään klo 18 UTC
Näkyvyys 10 km tai enemmän
ei pilviä alle 1500 m:ssä eikä cumulonimbus-pilviä

TAF: LTCE 170440Z 1706/1806 VRB02KT 9999 SCT030 BECMG 1716/1718 CAVOK

Säähavainnot ja -ennusteet yli 4000 lentoasemalta (METAR- ja TAF-raportit).

Käytössä olevat sääasemat on merkitty karttaan keltaisilla ja punaisilla pisteillä.

Aseta hiiri pisteen päälle nähdäksesi sääaseman nimen.

Klikkaa sitten nähdäksesi säähavainnot ja -ennusteet.

Kartan vaihtaminen: klikkaa mustalla rastilla varustettuja vihreitä pisteitä, niin voit zoomata sisään; viivalla varustettua vihreää pistettä, niin voit zoomata ulos tai vihreitä nuolia, niin pääset viereisille kartoille.


METAR-TAF: